This is the latest recevied weather packets stored in our database for station/object HP3ICC-22. If no packets are shown the sender has not sent any weather packets the latest 10 day(s).
| Time | Temp. | Humidity | Pressure | Rain* | Wind** | Luminosity | Snow |
|---|---|---|---|---|---|---|---|
| 1777869716 | 10° C | 79% | 1015 hPa | 0 mm | - | - | - |
| 1777868576 | 11.11° C | 77% | 1015 hPa | 0 mm | - | - | - |
| 1777868515 | 11.11° C | 77% | 1015 hPa | 0 mm | - | - | - |
| 1777867375 | 9.44° C | 86% | 1015 hPa | 0 mm | - | - | - |
| 1777867315 | 9.44° C | 86% | 1015 hPa | 0 mm | - | - | - |
| 1777866175 | 10° C | 86% | 1015 hPa | 0 mm | - | - | - |
| 1777866114 | 10° C | 86% | 1015 hPa | 0 mm | - | - | - |
| 1777864974 | 10° C | 80% | 1014 hPa | 0 mm | - | - | - |
| 1777864914 | 10° C | 80% | 1014 hPa | 0 mm | - | - | - |
| 1777863774 | 11.11° C | 77% | 1015 hPa | 0 mm | - | - | - |
| 1777863714 | 11.11° C | 77% | 1015 hPa | 0 mm | - | - | - |
| 1777862573 | 10° C | 79% | 1015 hPa | 0 mm | - | - | - |
| 1777862513 | 10° C | 79% | 1015 hPa | 0 mm | - | - | - |
| 1777861372 | 10.56° C | 79% | 1013 hPa | 0 mm | - | - | - |
| 1777861312 | 10.56° C | 79% | 1013 hPa | 0 mm | - | - | - |
| 1777860172 | 10° C | 78% | 1014 hPa | 0 mm | - | - | - |
| 1777860112 | 10° C | 78% | 1014 hPa | 0 mm | - | - | - |
| 1777858972 | 11.11° C | 78% | 1014 hPa | 0 mm | - | - | - |
| 1777858911 | 11.11° C | 78% | 1014 hPa | 0 mm | - | - | - |
| 1777857771 | 12.22° C | 77% | 1012 hPa | 0 mm | - | - | - |
| 1777857711 | 12.22° C | 77% | 1012 hPa | 0 mm | - | - | - |
| 1777856570 | 11.11° C | 77% | 1014 hPa | 0 mm | - | - | - |
| 1777856510 | 11.11° C | 77% | 1014 hPa | 0 mm | - | - | - |
| 1777855370 | 12.22° C | 77% | 1013 hPa | 0 mm | - | - | - |
| 1777855309 | 12.22° C | 77% | 1013 hPa | 0 mm | - | - | - |
* Rain latest hour (hover to see other rain measurements)
** Current wind speed in m/s (hover to see current wind gust speed)